createdAt,value
2023-05-31T00:01:57.563Z,15.04
2023-05-31T00:04:25.789Z,15.03
2023-05-31T00:06:53.679Z,15.01
2023-05-31T00:09:21.908Z,15.01
2023-05-31T00:11:49.758Z,14.98
2023-05-31T00:14:19.072Z,14.96
2023-05-31T00:17:15.544Z,14.94
2023-05-31T00:19:35.060Z,14.90
2023-05-31T00:22:02.831Z,14.89
2023-05-31T00:24:30.973Z,14.86
2023-05-31T00:26:58.817Z,14.89
2023-05-31T00:29:28.180Z,14.89
2023-05-31T00:31:55.988Z,14.86
2023-05-31T00:34:24.027Z,14.86
2023-05-31T00:36:51.794Z,14.85
2023-05-31T00:39:19.769Z,14.84
2023-05-31T00:41:47.623Z,14.84
2023-05-31T00:44:15.507Z,14.83
2023-05-31T00:46:44.697Z,14.81
2023-05-31T00:49:12.827Z,14.80
2023-05-31T00:51:40.629Z,14.81
2023-05-31T00:54:08.976Z,14.79
2023-05-31T00:56:37.222Z,14.81
2023-05-31T00:59:05.076Z,14.79
2023-05-31T01:01:34.666Z,14.78
2023-05-31T01:04:04.789Z,14.75
2023-05-31T01:06:33.866Z,14.67
2023-05-31T01:09:04.248Z,14.68
2023-05-31T01:11:38.217Z,14.67
2023-05-31T01:14:14.348Z,14.64
2023-05-31T01:16:45.380Z,14.64
2023-05-31T01:19:21.482Z,14.64
2023-05-31T01:21:58.752Z,14.64
2023-05-31T01:24:28.708Z,14.64
2023-05-31T01:27:01.614Z,14.65
2023-05-31T01:29:31.125Z,14.68
2023-05-31T01:32:00.907Z,14.71
2023-05-31T01:34:29.118Z,14.70
2023-05-31T01:36:56.856Z,14.73
2023-05-31T01:39:25.123Z,14.73
2023-05-31T01:41:53.581Z,14.71
2023-05-31T01:44:22.888Z,14.60
2023-05-31T01:46:51.006Z,14.69
2023-05-31T01:49:19.089Z,14.69
2023-05-31T01:51:47.440Z,14.49
2023-05-31T01:54:15.283Z,14.67
2023-05-31T01:56:44.460Z,14.63
2023-05-31T01:59:13.564Z,14.63
2023-05-31T02:01:42.909Z,14.62
2023-05-31T02:04:10.951Z,14.56
2023-05-31T02:06:39.098Z,14.59
2023-05-31T02:09:07.750Z,14.51
2023-05-31T02:11:35.686Z,14.61
2023-05-31T02:14:03.627Z,14.57
2023-05-31T02:16:31.599Z,14.54
2023-05-31T02:19:00.850Z,14.55
2023-05-31T02:21:28.655Z,14.50
2023-05-31T02:23:56.690Z,14.49
2023-05-31T02:26:25.014Z,14.44
2023-05-31T02:28:52.859Z,14.45
2023-05-31T02:31:21.215Z,14.47
2023-05-31T02:33:49.654Z,14.43
2023-05-31T02:36:19.392Z,14.44
2023-05-31T02:38:47.228Z,14.42
2023-05-31T02:41:15.508Z,14.42
2023-05-31T02:43:43.450Z,14.40
2023-05-31T02:46:11.396Z,14.40
2023-05-31T02:48:39.295Z,14.40
2023-05-31T02:51:07.090Z,14.36
2023-05-31T02:53:36.264Z,14.29
2023-05-31T02:56:04.238Z,14.25
2023-05-31T02:58:32.052Z,14.22
2023-05-31T03:01:00.346Z,14.17
2023-05-31T03:03:28.653Z,14.15
2023-05-31T03:05:56.538Z,14.12
2023-05-31T03:08:24.400Z,14.12
2023-05-31T03:10:53.957Z,14.10
2023-05-31T03:13:21.737Z,14.07
2023-05-31T03:15:50.138Z,14.03
2023-05-31T03:18:18.425Z,14.05
2023-05-31T03:20:47.160Z,14.05
2023-05-31T03:23:14.924Z,14.07
2023-05-31T03:25:42.901Z,14.08
2023-05-31T03:28:12.359Z,14.09
2023-05-31T03:30:40.148Z,14.12
2023-05-31T03:33:09.216Z,14.13
2023-05-31T03:35:37.303Z,14.16
2023-05-31T03:38:05.183Z,14.19
2023-05-31T03:40:33.095Z,14.17
2023-05-31T03:43:01.087Z,14.18
2023-05-31T03:45:30.542Z,13.94
2023-05-31T03:47:58.334Z,14.16
2023-05-31T03:50:26.809Z,14.17
2023-05-31T03:52:54.827Z,14.19
2023-05-31T03:55:22.753Z,14.23
2023-05-31T03:57:51.127Z,14.25
2023-05-31T04:00:19.813Z,14.24
2023-05-31T04:03:00.146Z,14.26
2023-05-31T04:05:31.897Z,14.26
2023-05-31T04:08:00.541Z,14.29
2023-05-31T04:10:28.375Z,14.28
2023-05-31T04:12:56.335Z,14.31
2023-05-31T04:15:24.386Z,14.12
2023-05-31T04:17:53.584Z,14.34
2023-05-31T04:20:21.740Z,14.40
2023-05-31T04:22:49.856Z,14.42
2023-05-31T04:25:18.939Z,14.44
2023-05-31T04:27:46.934Z,14.46
2023-05-31T04:30:15.363Z,14.51
2023-05-31T04:32:45.534Z,14.57
2023-05-31T04:35:15.075Z,14.59
2023-05-31T04:37:42.841Z,14.64
2023-05-31T04:40:11.354Z,14.68
2023-05-31T04:42:39.482Z,14.74
2023-05-31T04:45:08.592Z,14.81
2023-05-31T04:47:36.485Z,14.87
2023-05-31T04:50:04.880Z,14.94
2023-05-31T04:52:34.240Z,15.05
2023-05-31T04:55:02.526Z,15.10
2023-05-31T04:57:32.233Z,15.20
2023-05-31T05:00:00.961Z,15.29
2023-05-31T05:02:29.174Z,15.34
2023-05-31T05:04:57.106Z,15.40
2023-05-31T05:07:24.909Z,15.45
2023-05-31T05:09:54.065Z,15.54
2023-05-31T05:12:21.867Z,15.60
2023-05-31T05:14:49.707Z,15.64
2023-05-31T05:17:17.487Z,15.71
2023-05-31T05:19:45.293Z,15.75
2023-05-31T05:22:13.097Z,15.81
2023-05-31T05:24:40.846Z,15.89
2023-05-31T05:27:10.142Z,15.97
2023-05-31T05:29:37.883Z,16.03
2023-05-31T05:32:06.420Z,16.07
2023-05-31T05:34:34.491Z,16.11
2023-05-31T05:37:02.301Z,16.13
2023-05-31T05:39:30.086Z,16.20
2023-05-31T05:41:57.893Z,16.27
2023-05-31T05:44:27.108Z,16.37
2023-05-31T05:46:54.912Z,16.43
2023-05-31T05:49:22.725Z,16.50
2023-05-31T05:51:50.500Z,16.55
2023-05-31T05:54:18.244Z,16.60
2023-05-31T05:56:46.102Z,16.70
2023-05-31T05:59:13.874Z,16.80
2023-05-31T06:01:43.193Z,16.84
2023-05-31T06:04:11.299Z,16.86
2023-05-31T06:06:39.067Z,16.92
2023-05-31T06:09:06.883Z,17.03
2023-05-31T06:11:34.860Z,17.07
2023-05-31T06:14:02.667Z,17.13
2023-05-31T06:16:30.523Z,17.19
2023-05-31T06:18:59.681Z,17.21
2023-05-31T06:21:27.562Z,17.25
2023-05-31T06:23:55.423Z,17.34
2023-05-31T06:26:23.769Z,17.31
2023-05-31T06:28:52.504Z,17.37
2023-05-31T06:31:20.322Z,17.44
2023-05-31T06:33:49.760Z,17.48
2023-05-31T06:36:18.884Z,17.59
2023-05-31T06:38:47.511Z,17.60
2023-05-31T06:41:15.318Z,17.61
2023-05-31T06:43:43.147Z,17.70
2023-05-31T06:46:13.080Z,17.75
2023-05-31T06:48:41.544Z,17.87
2023-05-31T06:51:09.310Z,17.96
2023-05-31T06:53:38.450Z,17.99
2023-05-31T06:56:06.966Z,18.12
2023-05-31T06:58:34.755Z,18.23
2023-05-31T07:01:02.723Z,18.24
2023-05-31T07:03:30.648Z,18.25
2023-05-31T07:05:58.633Z,18.24
2023-05-31T07:08:26.402Z,18.30
2023-05-31T07:10:55.548Z,18.37
2023-05-31T07:13:24.145Z,18.57
2023-05-31T07:15:51.982Z,18.70
2023-05-31T07:18:19.778Z,18.79
2023-05-31T07:20:47.564Z,18.79
2023-05-31T07:23:15.296Z,18.73
2023-05-31T07:25:44.382Z,18.89
2023-05-31T07:28:13.662Z,19.06
2023-05-31T07:30:41.451Z,19.07
2023-05-31T07:33:09.320Z,19.06
2023-05-31T07:35:37.242Z,19.11
2023-05-31T07:38:05.014Z,19.01
2023-05-31T07:40:33.111Z,19.07
2023-05-31T07:43:01.158Z,19.18
2023-05-31T07:45:30.315Z,19.11
2023-05-31T07:47:59.106Z,19.19
2023-05-31T07:50:27.495Z,19.25
2023-05-31T07:52:55.283Z,19.19
2023-05-31T07:55:23.573Z,19.12
2023-05-31T07:57:51.353Z,19.13
2023-05-31T08:00:20.032Z,19.08
2023-05-31T08:02:49.276Z,19.22
2023-05-31T08:05:17.327Z,19.25
2023-05-31T08:07:45.789Z,19.28
2023-05-31T08:10:13.522Z,19.41
2023-05-31T08:12:41.916Z,19.43
2023-05-31T08:15:11.509Z,19.42
2023-05-31T08:17:39.337Z,19.57
2023-05-31T08:20:10.942Z,19.62
2023-05-31T08:22:38.737Z,19.67
2023-05-31T08:25:08.264Z,19.94
2023-05-31T08:27:36.103Z,19.89
2023-05-31T08:30:05.369Z,19.93
2023-05-31T08:32:33.397Z,20.05
2023-05-31T08:35:01.182Z,20.10
2023-05-31T08:37:30.333Z,20.19
2023-05-31T08:39:58.224Z,20.44
2023-05-31T08:42:28.018Z,20.34
2023-05-31T08:44:56.038Z,20.54
2023-05-31T08:47:26.753Z,20.88
2023-05-31T08:49:55.063Z,20.86
2023-05-31T08:52:23.571Z,20.98
2023-05-31T08:54:52.933Z,21.06
2023-05-31T08:57:21.533Z,21.33
2023-05-31T08:59:49.941Z,21.43
2023-05-31T09:02:18.450Z,21.61
2023-05-31T09:04:46.295Z,21.74
2023-05-31T09:07:14.126Z,21.84
2023-05-31T09:09:42.398Z,21.85
2023-05-31T09:12:11.817Z,21.80
2023-05-31T09:14:40.088Z,22.13
2023-05-31T09:17:07.903Z,22.09
2023-05-31T09:19:35.738Z,22.24
2023-05-31T09:22:06.067Z,22.37
2023-05-31T09:24:33.871Z,22.44
2023-05-31T09:27:02.715Z,22.51
2023-05-31T09:29:31.896Z,22.66
2023-05-31T09:32:12.496Z,22.50
2023-05-31T09:34:40.332Z,22.49
2023-05-31T09:37:08.147Z,22.42
2023-05-31T09:39:36.652Z,22.30
2023-05-31T09:42:13.591Z,22.00
2023-05-31T09:44:49.437Z,22.48
2023-05-31T09:47:17.284Z,22.59
2023-05-31T09:49:45.560Z,22.54
2023-05-31T09:52:14.770Z,22.74
2023-05-31T09:54:43.309Z,22.80
2023-05-31T09:57:30.760Z,22.29
2023-05-31T10:00:00.916Z,22.72
2023-05-31T10:02:29.441Z,23.12
2023-05-31T10:04:58.016Z,23.27
2023-05-31T10:07:26.137Z,22.81
2023-05-31T10:09:53.943Z,22.45
2023-05-31T10:12:24.034Z,22.41
2023-05-31T10:14:57.533Z,22.51
2023-05-31T10:17:30.528Z,22.94
2023-05-31T10:20:01.657Z,23.16
2023-05-31T10:22:32.347Z,23.10
2023-05-31T10:25:09.237Z,22.89
2023-05-31T10:27:40.435Z,22.86
2023-05-31T10:30:10.999Z,23.29
2023-05-31T10:32:44.741Z,23.43
2023-05-31T10:35:13.327Z,23.73
2023-05-31T10:37:42.221Z,24.00
2023-05-31T10:40:15.147Z,23.93
2023-05-31T10:42:46.382Z,23.84
2023-05-31T10:45:17.938Z,24.06
2023-05-31T10:47:54.030Z,24.30
2023-05-31T10:50:22.676Z,24.46
2023-05-31T10:52:51.629Z,24.48
2023-05-31T10:55:21.023Z,24.16
2023-05-31T10:57:55.004Z,23.84
2023-05-31T11:00:23.884Z,24.05
2023-05-31T11:02:55.749Z,24.37
2023-05-31T11:05:26.086Z,24.48
2023-05-31T11:07:55.334Z,24.67
2023-05-31T11:10:27.524Z,24.99
2023-05-31T11:12:58.317Z,25.50
2023-05-31T11:15:40.447Z,25.37
2023-05-31T11:18:11.375Z,25.92
2023-05-31T11:20:39.459Z,25.96
2023-05-31T11:23:30.113Z,25.67
2023-05-31T11:26:16.997Z,26.01
2023-05-31T11:28:59.362Z,25.79
2023-05-31T11:32:03.229Z,25.01
2023-05-31T11:34:34.792Z,25.09
2023-05-31T11:37:04.765Z,25.30
2023-05-31T11:39:32.686Z,25.31
2023-05-31T11:42:00.858Z,25.27
2023-05-31T11:44:31.289Z,25.49
2023-05-31T11:47:07.045Z,26.02
2023-05-31T11:49:36.577Z,25.80
2023-05-31T11:52:05.919Z,26.04
2023-05-31T11:54:36.128Z,26.33
2023-05-31T11:57:05.793Z,26.65
2023-05-31T11:59:34.310Z,25.98
2023-05-31T12:02:02.967Z,26.10
2023-05-31T12:04:32.239Z,26.23
2023-05-31T12:07:01.492Z,26.11
2023-05-31T12:09:29.702Z,26.14
2023-05-31T12:11:57.905Z,26.39
2023-05-31T12:14:26.282Z,26.91
2023-05-31T12:16:54.442Z,27.09
2023-05-31T12:19:22.405Z,26.81
2023-05-31T12:21:50.376Z,26.74
2023-05-31T12:24:19.794Z,26.74
2023-05-31T12:26:49.501Z,26.49
2023-05-31T12:29:17.679Z,26.91
2023-05-31T12:31:46.764Z,27.05
2023-05-31T12:34:15.659Z,27.37
2023-05-31T12:36:45.090Z,27.60
2023-05-31T12:39:15.279Z,27.91
2023-05-31T12:41:48.250Z,27.94
2023-05-31T12:44:17.819Z,27.31
2023-05-31T12:46:46.536Z,26.89
2023-05-31T12:49:15.982Z,26.87
2023-05-31T12:51:44.477Z,27.28
2023-05-31T12:54:13.677Z,27.32
2023-05-31T12:56:41.705Z,27.42
2023-05-31T12:59:11.281Z,27.62
2023-05-31T13:01:41.688Z,27.27
2023-05-31T13:04:12.356Z,26.84
2023-05-31T13:06:40.689Z,27.01
2023-05-31T13:09:08.505Z,27.37
2023-05-31T13:11:36.811Z,27.56
2023-05-31T13:14:05.894Z,27.70
2023-05-31T13:16:35.149Z,27.80
2023-05-31T13:19:04.117Z,27.40
2023-05-31T13:21:32.862Z,27.11
2023-05-31T13:24:01.428Z,27.19
2023-05-31T13:26:29.916Z,27.12
2023-05-31T13:28:58.834Z,27.10
2023-05-31T13:31:26.769Z,27.17
2023-05-31T13:33:56.744Z,27.45
2023-05-31T13:36:25.194Z,27.93
2023-05-31T13:38:53.426Z,27.79
2023-05-31T13:41:23.350Z,27.91
2023-05-31T13:43:51.777Z,28.37
2023-05-31T13:46:20.203Z,28.02
2023-05-31T13:48:48.158Z,27.82
2023-05-31T13:51:17.636Z,28.06
2023-05-31T13:53:45.414Z,28.40
2023-05-31T13:56:13.181Z,28.66
2023-05-31T13:58:41.240Z,29.07
2023-05-31T14:01:09.740Z,29.11
2023-05-31T14:03:38.019Z,28.45
2023-05-31T14:06:07.217Z,27.92
2023-05-31T14:08:37.069Z,28.33
2023-05-31T14:11:05.038Z,28.19
2023-05-31T14:13:33.679Z,28.52
2023-05-31T14:16:01.699Z,28.65
2023-05-31T14:18:29.637Z,28.24
2023-05-31T14:20:57.746Z,28.42
2023-05-31T14:23:25.780Z,28.71
2023-05-31T14:25:54.957Z,28.46
2023-05-31T14:28:22.761Z,28.32
2023-05-31T14:30:50.827Z,28.62
2023-05-31T14:33:19.663Z,28.67
2023-05-31T14:35:48.227Z,28.25
2023-05-31T14:38:27.854Z,28.28
2023-05-31T14:41:04.532Z,28.39
2023-05-31T14:43:32.424Z,28.48
2023-05-31T14:46:00.546Z,28.86
2023-05-31T14:48:28.512Z,28.95
2023-05-31T14:50:56.511Z,28.71
2023-05-31T14:53:24.344Z,28.59
2023-05-31T14:55:53.920Z,29.01
2023-05-31T14:58:27.134Z,28.98
2023-05-31T15:00:55.025Z,29.20
2023-05-31T15:03:22.837Z,29.43
2023-05-31T15:05:50.687Z,29.80
2023-05-31T15:08:18.450Z,29.69
2023-05-31T15:10:46.224Z,29.67
2023-05-31T15:13:14.771Z,29.63
2023-05-31T15:15:43.966Z,29.66
2023-05-31T15:18:11.906Z,29.62
2023-05-31T15:20:39.748Z,29.25
2023-05-31T15:23:07.536Z,29.16
2023-05-31T15:25:35.389Z,28.99
2023-05-31T15:28:03.885Z,29.04
2023-05-31T15:30:31.791Z,29.07
2023-05-31T15:33:00.945Z,29.10
2023-05-31T15:35:28.934Z,29.22
2023-05-31T15:37:56.723Z,29.11
2023-05-31T15:40:24.519Z,28.87
2023-05-31T15:42:52.348Z,28.91
2023-05-31T15:45:20.369Z,28.96
2023-05-31T15:47:48.275Z,28.28
2023-05-31T15:50:17.493Z,28.39
2023-05-31T15:52:45.306Z,28.37
2023-05-31T15:55:13.197Z,28.83
2023-05-31T15:57:41.297Z,28.98
2023-05-31T16:00:10.288Z,28.60
2023-05-31T16:02:38.385Z,28.44
2023-05-31T16:05:08.389Z,28.17
2023-05-31T16:07:37.570Z,28.10
2023-05-31T16:10:05.995Z,28.35
2023-05-31T16:12:33.933Z,28.52
2023-05-31T16:15:01.916Z,28.47
2023-05-31T16:17:30.510Z,28.49
2023-05-31T16:19:58.456Z,28.14
2023-05-31T16:22:26.312Z,28.18
2023-05-31T16:24:55.528Z,28.46
2023-05-31T16:27:23.572Z,28.30
2023-05-31T16:29:51.376Z,28.61
2023-05-31T16:32:19.282Z,28.47
2023-05-31T16:34:47.161Z,27.99
2023-05-31T16:37:15.747Z,27.97
2023-05-31T16:39:43.617Z,27.71
2023-05-31T16:42:12.942Z,27.87
2023-05-31T16:44:42.891Z,27.80
2023-05-31T16:47:11.244Z,28.05
2023-05-31T16:49:39.100Z,27.98
2023-05-31T16:52:07.607Z,27.97
2023-05-31T16:54:35.455Z,27.91
2023-05-31T16:57:03.240Z,28.07
2023-05-31T16:59:32.513Z,27.99
2023-05-31T17:02:00.876Z,27.96
2023-05-31T17:04:28.716Z,27.91
2023-05-31T17:06:56.606Z,27.81
2023-05-31T17:09:24.473Z,27.56
2023-05-31T17:11:53.171Z,27.50
2023-05-31T17:14:21.106Z,27.39
2023-05-31T17:16:50.407Z,27.17
2023-05-31T17:19:18.250Z,26.93
2023-05-31T17:21:46.092Z,26.90
2023-05-31T17:24:13.960Z,26.95
2023-05-31T17:26:44.252Z,26.93
2023-05-31T17:29:12.186Z,26.70
2023-05-31T17:31:40.503Z,26.54
2023-05-31T17:34:09.788Z,26.46
2023-05-31T17:36:38.235Z,26.33
2023-05-31T17:39:06.080Z,26.20
2023-05-31T17:41:33.962Z,26.04
2023-05-31T17:44:01.756Z,25.86
2023-05-31T17:46:29.880Z,25.62
2023-05-31T17:48:57.794Z,25.56
2023-05-31T17:51:27.641Z,25.42
2023-05-31T17:53:55.991Z,25.31
2023-05-31T17:56:24.089Z,25.24
2023-05-31T17:58:51.932Z,25.07
2023-05-31T18:01:19.945Z,24.92
2023-05-31T18:03:47.855Z,24.43
2023-05-31T18:06:15.715Z,24.49
2023-05-31T18:08:44.975Z,24.42
2023-05-31T18:11:12.816Z,24.17
2023-05-31T18:13:40.642Z,23.93
2023-05-31T18:16:08.592Z,23.91
2023-05-31T18:18:36.937Z,23.77
2023-05-31T18:21:05.519Z,23.57
2023-05-31T18:23:33.388Z,23.56
2023-05-31T18:26:02.701Z,23.45
2023-05-31T18:28:30.590Z,23.34
2023-05-31T18:30:58.644Z,23.20
2023-05-31T18:33:26.591Z,23.12
2023-05-31T18:35:54.523Z,23.02
2023-05-31T18:38:23.389Z,22.84
2023-05-31T18:40:52.052Z,22.70
2023-05-31T18:43:23.032Z,22.65
2023-05-31T18:45:50.951Z,22.38
2023-05-31T18:48:18.936Z,22.46
2023-05-31T18:50:46.942Z,22.35
2023-05-31T18:53:14.782Z,22.21
2023-05-31T18:55:43.043Z,22.19
2023-05-31T18:58:10.897Z,22.10
2023-05-31T19:00:40.162Z,22.01
2023-05-31T19:03:08.111Z,21.90
2023-05-31T19:05:35.992Z,21.90
2023-05-31T19:08:03.843Z,21.80
2023-05-31T19:10:31.646Z,21.66
2023-05-31T19:12:59.673Z,21.56
2023-05-31T19:15:27.726Z,21.52
2023-05-31T19:18:09.976Z,21.45
2023-05-31T19:20:48.887Z,21.39
2023-05-31T19:23:17.630Z,21.36
2023-05-31T19:25:45.650Z,21.16
2023-05-31T19:28:13.704Z,21.08
2023-05-31T19:30:43.006Z,20.99
2023-05-31T19:33:13.322Z,20.88
2023-05-31T19:35:41.325Z,20.81
2023-05-31T19:38:09.241Z,20.71
2023-05-31T19:40:37.129Z,20.58
2023-05-31T19:43:07.105Z,20.61
2023-05-31T19:45:35.459Z,20.59
2023-05-31T19:48:08.057Z,20.43
2023-05-31T19:50:37.679Z,20.39
2023-05-31T19:53:05.735Z,20.32
2023-05-31T19:55:33.950Z,20.28
2023-05-31T19:58:01.747Z,20.27
2023-05-31T20:00:29.646Z,20.23
2023-05-31T20:02:57.622Z,20.21
2023-05-31T20:05:25.581Z,20.12
2023-05-31T20:07:54.931Z,20.08
2023-05-31T20:10:22.772Z,20.03
2023-05-31T20:12:50.579Z,19.99
2023-05-31T20:15:19.457Z,19.95
2023-05-31T20:17:47.313Z,19.94
2023-05-31T20:20:15.687Z,19.89
2023-05-31T20:22:43.504Z,19.87
2023-05-31T20:25:13.345Z,19.82
2023-05-31T20:27:41.159Z,19.76
2023-05-31T20:30:09.857Z,19.71
2023-05-31T20:32:37.680Z,19.69
2023-05-31T20:35:08.309Z,19.70
2023-05-31T20:37:36.249Z,19.68
2023-05-31T20:40:04.128Z,19.58
2023-05-31T20:42:33.288Z,19.56
2023-05-31T20:45:01.120Z,19.57
2023-05-31T20:47:31.289Z,19.53
2023-05-31T20:49:59.109Z,19.47
2023-05-31T20:52:28.248Z,19.48
2023-05-31T20:54:56.642Z,19.44
2023-05-31T20:57:24.742Z,19.40
2023-05-31T20:59:55.753Z,19.38
2023-05-31T21:02:23.616Z,19.39
2023-05-31T21:04:51.441Z,19.26
2023-05-31T21:07:19.263Z,19.36
2023-05-31T21:09:47.071Z,19.34
2023-05-31T21:12:17.821Z,19.28
2023-05-31T21:14:46.778Z,19.28
2023-05-31T21:17:16.001Z,19.25
2023-05-31T21:19:43.990Z,19.16
2023-05-31T21:22:11.953Z,19.17
2023-05-31T21:24:39.822Z,19.17
2023-05-31T21:27:08.328Z,19.15
2023-05-31T21:29:36.128Z,19.12
2023-05-31T21:32:04.072Z,19.09
2023-05-31T21:34:33.428Z,19.05
2023-05-31T21:37:01.401Z,19.04
2023-05-31T21:39:29.239Z,18.97
2023-05-31T21:41:57.093Z,18.90
2023-05-31T21:44:24.882Z,18.88
2023-05-31T21:46:54.330Z,18.86
2023-05-31T21:49:22.371Z,18.83
2023-05-31T21:51:51.579Z,18.81
2023-05-31T21:54:19.424Z,18.75
2023-05-31T21:56:47.255Z,18.74
2023-05-31T21:59:15.067Z,18.73
2023-05-31T22:01:42.992Z,18.71
2023-05-31T22:04:11.544Z,18.71
2023-05-31T22:06:39.454Z,18.70
2023-05-31T22:09:08.596Z,18.70
2023-05-31T22:11:36.953Z,18.65
2023-05-31T22:14:04.821Z,18.50
2023-05-31T22:16:32.878Z,18.59
2023-05-31T22:19:02.832Z,18.58
2023-05-31T22:21:34.329Z,18.55
2023-05-31T22:24:02.497Z,18.50
2023-05-31T22:26:31.869Z,18.49
2023-05-31T22:28:59.706Z,18.45
2023-05-31T22:31:28.514Z,18.47
2023-05-31T22:33:56.332Z,18.48
2023-05-31T22:36:24.146Z,18.44
2023-05-31T22:38:51.919Z,18.40
2023-05-31T22:41:19.706Z,18.35
2023-05-31T22:43:48.858Z,18.33
2023-05-31T22:46:16.842Z,18.26
2023-05-31T22:48:44.648Z,18.22
2023-05-31T22:51:13.000Z,18.14
2023-05-31T22:53:41.467Z,18.09
2023-05-31T22:56:09.340Z,18.05
2023-05-31T22:58:37.251Z,17.99
2023-05-31T23:01:06.848Z,17.92
2023-05-31T23:03:35.009Z,17.85
2023-05-31T23:06:03.282Z,17.78
2023-05-31T23:08:31.776Z,17.77
2023-05-31T23:11:00.207Z,17.76
2023-05-31T23:13:28.829Z,17.67
2023-05-31T23:15:59.859Z,17.61
2023-05-31T23:18:29.476Z,17.56
2023-05-31T23:20:57.660Z,17.53
2023-05-31T23:23:26.157Z,17.52
2023-05-31T23:25:54.015Z,17.55
2023-05-31T23:28:22.257Z,17.58
2023-05-31T23:30:50.125Z,17.59
2023-05-31T23:33:18.230Z,17.59
2023-05-31T23:35:47.783Z,17.54
2023-05-31T23:38:15.860Z,17.50
2023-05-31T23:40:43.660Z,17.47
2023-05-31T23:43:11.802Z,17.44
2023-05-31T23:45:39.856Z,17.39
2023-05-31T23:48:08.052Z,17.38
2023-05-31T23:50:36.301Z,17.38
2023-05-31T23:53:05.867Z,17.35
2023-05-31T23:55:34.077Z,17.32
2023-05-31T23:58:01.985Z,17.34
